sensor_id;sensor_type;location;lat;lon;timestamp;temperature;humidity
59703;DHT22;45570;48.782;8.332;2022-09-13T06:42:58;15.00;99.90
59703;DHT22;45570;48.782;8.332;2022-09-13T06:45:27;15.20;99.90
59703;DHT22;45570;48.782;8.332;2022-09-13T06:47:56;15.40;99.90
59703;DHT22;45570;48.782;8.332;2022-09-13T06:50:24;15.50;99.90
59703;DHT22;45570;48.782;8.332;2022-09-13T06:52:55;15.70;99.90
59703;DHT22;45570;48.782;8.332;2022-09-13T06:55:24;15.80;99.90
59703;DHT22;45570;48.782;8.332;2022-09-13T06:57:53;16.00;99.90
59703;DHT22;45570;48.782;8.332;2022-09-13T07:00:23;16.20;99.90
59703;DHT22;45570;48.782;8.332;2022-09-13T07:02:52;16.40;99.90
59703;DHT22;45570;48.782;8.332;2022-09-13T07:05:21;16.70;99.90
59703;DHT22;45570;48.782;8.332;2022-09-13T07:07:50;17.10;99.90
59703;DHT22;45570;48.782;8.332;2022-09-13T07:10:18;17.40;99.90
59703;DHT22;45570;48.782;8.332;2022-09-13T07:12:47;17.70;99.90
59703;DHT22;45570;48.782;8.332;2022-09-13T07:15:17;18.00;99.90
59703;DHT22;45570;48.782;8.332;2022-09-13T07:17:47;18.30;99.90
59703;DHT22;45570;48.782;8.332;2022-09-13T07:20:16;18.70;99.90
59703;DHT22;45570;48.782;8.332;2022-09-13T07:22:44;19.00;99.90
59703;DHT22;45570;48.782;8.332;2022-09-13T07:25:13;19.30;99.90
59703;DHT22;45570;48.782;8.332;2022-09-13T07:27:42;19.50;99.90
59703;DHT22;45570;48.782;8.332;2022-09-13T07:30:11;19.50;99.90
59703;DHT22;45570;48.782;8.332;2022-09-13T07:32:40;19.60;99.90
59703;DHT22;45570;48.782;8.332;2022-09-13T07:35:10;19.60;99.90
59703;DHT22;45570;48.782;8.332;2022-09-13T07:37:39;19.80;99.90
59703;DHT22;45570;48.782;8.332;2022-09-13T07:40:09;19.80;99.90
59703;DHT22;45570;48.782;8.332;2022-09-13T07:42:38;20.00;99.90
59703;DHT22;45570;48.782;8.332;2022-09-13T07:45:08;20.20;99.90
59703;DHT22;45570;48.782;8.332;2022-09-13T07:47:38;20.20;99.90
59703;DHT22;45570;48.782;8.332;2022-09-13T07:50:10;20.30;99.90
59703;DHT22;45570;48.782;8.332;2022-09-13T07:52:39;20.40;99.90
59703;DHT22;45570;48.782;8.332;2022-09-13T07:55:08;20.50;99.90
59703;DHT22;45570;48.782;8.332;2022-09-13T07:57:37;20.70;99.90
59703;DHT22;45570;48.782;8.332;2022-09-13T08:00:07;20.90;99.90
59703;DHT22;45570;48.782;8.332;2022-09-13T08:02:37;21.20;99.90
59703;DHT22;45570;48.782;8.332;2022-09-13T08:05:06;21.60;99.90
59703;DHT22;45570;48.782;8.332;2022-09-13T08:07:37;22.00;99.90
59703;DHT22;45570;48.782;8.332;2022-09-13T08:12:35;22.80;99.90
59703;DHT22;45570;48.782;8.332;2022-09-13T08:15:04;23.30;99.90
59703;DHT22;45570;48.782;8.332;2022-09-13T08:17:33;23.50;99.90
59703;DHT22;45570;48.782;8.332;2022-09-13T08:20:03;23.30;99.90
59703;DHT22;45570;48.782;8.332;2022-09-13T08:22:32;23.50;99.90
59703;DHT22;45570;48.782;8.332;2022-09-13T08:25:07;23.60;99.90
59703;DHT22;45570;48.782;8.332;2022-09-13T08:27:41;23.40;99.90
59703;DHT22;45570;48.782;8.332;2022-09-13T08:30:15;23.40;99.90
59703;DHT22;45570;48.782;8.332;2022-09-13T08:32:43;23.90;99.90
59703;DHT22;45570;48.782;8.332;2022-09-13T08:35:12;24.00;99.90
59703;DHT22;45570;48.782;8.332;2022-09-13T08:37:41;24.30;99.90
59703;DHT22;45570;48.782;8.332;2022-09-13T08:40:11;24.50;99.90
59703;DHT22;45570;48.782;8.332;2022-09-13T08:42:52;24.80;99.90
59703;DHT22;45570;48.782;8.332;2022-09-13T08:45:21;25.20;99.90
59703;DHT22;45570;48.782;8.332;2022-09-13T08:50:26;25.60;99.90
59703;DHT22;45570;48.782;8.332;2022-09-13T08:55:53;25.80;99.90
59703;DHT22;45570;48.782;8.332;2022-09-13T08:58:32;25.50;99.90
59703;DHT22;45570;48.782;8.332;2022-09-13T09:01:07;25.20;99.90
59703;DHT22;45570;48.782;8.332;2022-09-13T09:03:42;24.90;99.90
59703;DHT22;45570;48.782;8.332;2022-09-13T09:06:15;24.70;99.90
59703;DHT22;45570;48.782;8.332;2022-09-13T09:08:47;24.60;99.90
59703;DHT22;45570;48.782;8.332;2022-09-13T09:11:29;24.80;99.90
59703;DHT22;45570;48.782;8.332;2022-09-13T09:14:04;24.50;99.90
59703;DHT22;45570;48.782;8.332;2022-09-13T09:16:39;24.30;99.90
59703;DHT22;45570;48.782;8.332;2022-09-13T09:19:17;24.30;99.90
59703;DHT22;45570;48.782;8.332;2022-09-13T09:21:49;24.40;99.90
59703;DHT22;45570;48.782;8.332;2022-09-13T09:24:20;24.60;99.90
59703;DHT22;45570;48.782;8.332;2022-09-13T09:26:52;24.80;99.90
59703;DHT22;45570;48.782;8.332;2022-09-13T09:29:23;24.80;99.90
59703;DHT22;45570;48.782;8.332;2022-09-13T09:32:07;24.90;99.90
59703;DHT22;45570;48.782;8.332;2022-09-13T09:34:48;24.70;99.90
59703;DHT22;45570;48.782;8.332;2022-09-13T09:37:22;24.60;99.90
59703;DHT22;45570;48.782;8.332;2022-09-13T09:39:53;24.30;99.90
59703;DHT22;45570;48.782;8.332;2022-09-13T09:42:27;24.30;99.90
59703;DHT22;45570;48.782;8.332;2022-09-13T09:44:59;24.00;99.90
59703;DHT22;45570;48.782;8.332;2022-09-13T09:47:35;24.10;99.90
59703;DHT22;45570;48.782;8.332;2022-09-13T09:50:10;24.30;99.90
59703;DHT22;45570;48.782;8.332;2022-09-13T09:52:44;25.20;99.90
59703;DHT22;45570;48.782;8.332;2022-09-13T09:55:22;25.60;99.90
59703;DHT22;45570;48.782;8.332;2022-09-13T09:57:56;25.50;99.90
59703;DHT22;45570;48.782;8.332;2022-09-13T10:00:27;25.40;99.90
59703;DHT22;45570;48.782;8.332;2022-09-13T10:02:59;25.00;99.90
59703;DHT22;45570;48.782;8.332;2022-09-13T10:05:30;24.90;99.90
59703;DHT22;45570;48.782;8.332;2022-09-13T10:08:01;25.30;99.90
59703;DHT22;45570;48.782;8.332;2022-09-13T10:10:37;25.30;99.90
59703;DHT22;45570;48.782;8.332;2022-09-13T10:13:17;25.50;99.90
59703;DHT22;45570;48.782;8.332;2022-09-13T10:15:55;25.70;99.90
59703;DHT22;45570;48.782;8.332;2022-09-13T10:18:26;26.30;99.90
59703;DHT22;45570;48.782;8.332;2022-09-13T10:21:23;26.70;99.90
59703;DHT22;45570;48.782;8.332;2022-09-13T10:24:15;26.70;99.90
59703;DHT22;45570;48.782;8.332;2022-09-13T10:26:45;26.80;99.90
59703;DHT22;45570;48.782;8.332;2022-09-13T10:29:16;26.80;99.90
59703;DHT22;45570;48.782;8.332;2022-09-13T10:31:47;26.70;99.90
59703;DHT22;45570;48.782;8.332;2022-09-13T10:34:22;26.80;99.90
59703;DHT22;45570;48.782;8.332;2022-09-13T10:36:55;26.60;99.90
59703;DHT22;45570;48.782;8.332;2022-09-13T10:39:28;26.40;99.90
59703;DHT22;45570;48.782;8.332;2022-09-13T10:42:01;26.50;99.90
59703;DHT22;45570;48.782;8.332;2022-09-13T10:44:42;26.70;99.90
59703;DHT22;45570;48.782;8.332;2022-09-13T10:47:19;26.40;99.90
59703;DHT22;45570;48.782;8.332;2022-09-13T10:49:51;26.10;99.90
59703;DHT22;45570;48.782;8.332;2022-09-13T10:52:26;26.00;99.90
59703;DHT22;45570;48.782;8.332;2022-09-13T10:55:29;26.20;99.90
59703;DHT22;45570;48.782;8.332;2022-09-13T10:58:17;26.20;99.90
59703;DHT22;45570;48.782;8.332;2022-09-13T11:01:06;26.20;99.90
59703;DHT22;45570;48.782;8.332;2022-09-13T11:03:54;26.20;99.90
59703;DHT22;45570;48.782;8.332;2022-09-13T11:06:31;26.20;99.90
59703;DHT22;45570;48.782;8.332;2022-09-13T11:09:07;26.10;99.90
59703;DHT22;45570;48.782;8.332;2022-09-13T11:11:42;25.80;99.90
59703;DHT22;45570;48.782;8.332;2022-09-13T11:14:32;25.60;99.90
59703;DHT22;45570;48.782;8.332;2022-09-13T11:17:11;25.50;99.90
59703;DHT22;45570;48.782;8.332;2022-09-13T11:23:00;25.80;99.90
59703;DHT22;45570;48.782;8.332;2022-09-13T11:25:47;25.80;99.90
59703;DHT22;45570;48.782;8.332;2022-09-13T11:28:24;25.80;99.90
59703;DHT22;45570;48.782;8.332;2022-09-13T11:33:47;26.70;99.90
59703;DHT22;45570;48.782;8.332;2022-09-13T11:36:37;27.70;99.90
59703;DHT22;45570;48.782;8.332;2022-09-13T11:39:18;27.80;99.90
59703;DHT22;45570;48.782;8.332;2022-09-13T11:42:00;28.50;99.90
59703;DHT22;45570;48.782;8.332;2022-09-13T11:44:50;28.60;99.90
59703;DHT22;45570;48.782;8.332;2022-09-13T11:47:31;28.30;99.90
59703;DHT22;45570;48.782;8.332;2022-09-13T11:50:26;28.10;99.90
59703;DHT22;45570;48.782;8.332;2022-09-13T11:55:59;28.80;99.90
59703;DHT22;45570;48.782;8.332;2022-09-13T11:58:33;29.00;99.90
59703;DHT22;45570;48.782;8.332;2022-09-13T12:01:06;29.20;99.90
59703;DHT22;45570;48.782;8.332;2022-09-13T12:03:39;28.90;99.90
59703;DHT22;45570;48.782;8.332;2022-09-13T12:06:17;29.10;99.90
59703;DHT22;45570;48.782;8.332;2022-09-13T12:08:49;29.30;99.90
59703;DHT22;45570;48.782;8.332;2022-09-13T12:11:22;29.60;98.50
59703;DHT22;45570;48.782;8.332;2022-09-13T12:13:54;29.00;99.50
59703;DHT22;45570;48.782;8.332;2022-09-13T12:16:27;28.70;96.50
59703;DHT22;45570;48.782;8.332;2022-09-13T12:19:19;28.70;99.30
59703;DHT22;45570;48.782;8.332;2022-09-13T12:21:51;28.70;99.90
59703;DHT22;45570;48.782;8.332;2022-09-13T12:24:33;28.90;99.20
59703;DHT22;45570;48.782;8.332;2022-09-13T12:27:06;28.90;99.40
59703;DHT22;45570;48.782;8.332;2022-09-13T12:29:42;28.80;99.60
59703;DHT22;45570;48.782;8.332;2022-09-13T12:32:13;29.00;99.90
59703;DHT22;45570;48.782;8.332;2022-09-13T12:34:45;28.70;99.90
59703;DHT22;45570;48.782;8.332;2022-09-13T12:37:41;28.40;99.90
59703;DHT22;45570;48.782;8.332;2022-09-13T12:40:38;28.40;99.90
59703;DHT22;45570;48.782;8.332;2022-09-13T12:43:28;28.50;99.90
59703;DHT22;45570;48.782;8.332;2022-09-13T12:46:14;28.40;99.90
59703;DHT22;45570;48.782;8.332;2022-09-13T12:49:25;28.40;99.20
59703;DHT22;45570;48.782;8.332;2022-09-13T12:52:19;28.50;98.00
59703;DHT22;45570;48.782;8.332;2022-09-13T12:58:28;28.20;99.90
59703;DHT22;45570;48.782;8.332;2022-09-13T13:01:08;28.20;99.90
59703;DHT22;45570;48.782;8.332;2022-09-13T13:03:47;28.10;99.90
59703;DHT22;45570;48.782;8.332;2022-09-13T13:06:31;27.80;99.40
59703;DHT22;45570;48.782;8.332;2022-09-13T13:09:06;27.60;99.90
59703;DHT22;45570;48.782;8.332;2022-09-13T13:11:57;27.70;99.90
59703;DHT22;45570;48.782;8.332;2022-09-13T13:14:47;27.90;99.90
59703;DHT22;45570;48.782;8.332;2022-09-13T13:17:41;28.10;99.90
59703;DHT22;45570;48.782;8.332;2022-09-13T13:20:45;28.10;99.90
59703;DHT22;45570;48.782;8.332;2022-09-13T13:23:21;27.90;99.90
59703;DHT22;45570;48.782;8.332;2022-09-13T13:26:12;28.00;99.90
59703;DHT22;45570;48.782;8.332;2022-09-13T13:29:13;28.20;99.90
59703;DHT22;45570;48.782;8.332;2022-09-13T13:34:48;28.60;99.90
59703;DHT22;45570;48.782;8.332;2022-09-13T13:37:34;28.80;99.90
59703;DHT22;45570;48.782;8.332;2022-09-13T13:40:21;28.90;99.90
59703;DHT22;45570;48.782;8.332;2022-09-13T13:43:30;29.00;99.90
59703;DHT22;45570;48.782;8.332;2022-09-13T13:46:25;28.80;99.90
59703;DHT22;45570;48.782;8.332;2022-09-13T13:48:55;29.20;99.90
59703;DHT22;45570;48.782;8.332;2022-09-13T13:51:26;29.20;99.90
59703;DHT22;45570;48.782;8.332;2022-09-13T13:54:03;29.60;99.90
59703;DHT22;45570;48.782;8.332;2022-09-13T13:56:44;29.70;99.90
59703;DHT22;45570;48.782;8.332;2022-09-13T13:59:21;29.60;99.90
59703;DHT22;45570;48.782;8.332;2022-09-13T14:01:55;29.50;99.90
59703;DHT22;45570;48.782;8.332;2022-09-13T14:08:00;29.70;99.90
59703;DHT22;45570;48.782;8.332;2022-09-13T14:10:40;29.60;99.90
59703;DHT22;45570;48.782;8.332;2022-09-13T14:13:31;29.40;99.90
59703;DHT22;45570;48.782;8.332;2022-09-13T14:16:08;29.40;99.90
59703;DHT22;45570;48.782;8.332;2022-09-13T14:19:00;29.40;99.90
59703;DHT22;45570;48.782;8.332;2022-09-13T14:21:33;29.30;99.90
59703;DHT22;45570;48.782;8.332;2022-09-13T14:24:17;29.10;99.90
59703;DHT22;45570;48.782;8.332;2022-09-13T14:26:48;28.90;99.90
59703;DHT22;45570;48.782;8.332;2022-09-13T14:29:20;29.00;99.90
59703;DHT22;45570;48.782;8.332;2022-09-13T14:31:51;29.20;99.90
59703;DHT22;45570;48.782;8.332;2022-09-13T14:34:37;29.10;99.90
59703;DHT22;45570;48.782;8.332;2022-09-13T14:37:17;29.00;99.90
59703;DHT22;45570;48.782;8.332;2022-09-13T14:39:56;28.90;99.90
59703;DHT22;45570;48.782;8.332;2022-09-13T14:42:26;28.80;99.90
59703;DHT22;45570;48.782;8.332;2022-09-13T14:45:05;28.90;99.90
59703;DHT22;45570;48.782;8.332;2022-09-13T14:47:47;29.00;99.90
59703;DHT22;45570;48.782;8.332;2022-09-13T14:50:21;29.00;99.90
59703;DHT22;45570;48.782;8.332;2022-09-13T14:52:58;29.00;99.90
59703;DHT22;45570;48.782;8.332;2022-09-13T14:55:39;28.80;99.90
59703;DHT22;45570;48.782;8.332;2022-09-13T14:58:15;28.60;99.90
59703;DHT22;45570;48.782;8.332;2022-09-13T15:00:48;28.40;99.90
59703;DHT22;45570;48.782;8.332;2022-09-13T15:03:19;28.20;99.90
59703;DHT22;45570;48.782;8.332;2022-09-13T15:05:59;28.20;99.90
59703;DHT22;45570;48.782;8.332;2022-09-13T15:08:44;28.10;99.90
59703;DHT22;45570;48.782;8.332;2022-09-13T15:11:15;27.90;99.90
59703;DHT22;45570;48.782;8.332;2022-09-13T15:14:01;27.80;99.90
59703;DHT22;45570;48.782;8.332;2022-09-13T15:16:31;27.60;99.90
59703;DHT22;45570;48.782;8.332;2022-09-13T15:19:25;27.50;99.90
59703;DHT22;45570;48.782;8.332;2022-09-13T15:22:04;27.30;99.90
59703;DHT22;45570;48.782;8.332;2022-09-13T15:24:33;27.30;99.90
59703;DHT22;45570;48.782;8.332;2022-09-13T15:27:04;27.20;99.90
59703;DHT22;45570;48.782;8.332;2022-09-13T15:29:33;27.10;99.90
59703;DHT22;45570;48.782;8.332;2022-09-13T15:32:04;27.10;99.90
59703;DHT22;45570;48.782;8.332;2022-09-13T15:34:44;27.00;99.90
59703;DHT22;45570;48.782;8.332;2022-09-13T15:37:15;27.00;99.90
59703;DHT22;45570;48.782;8.332;2022-09-13T15:39:48;26.90;99.90
59703;DHT22;45570;48.782;8.332;2022-09-13T15:42:20;26.80;99.90
59703;DHT22;45570;48.782;8.332;2022-09-13T15:44:49;26.70;99.90
59703;DHT22;45570;48.782;8.332;2022-09-13T15:47:18;26.60;99.90
59703;DHT22;45570;48.782;8.332;2022-09-13T15:49:48;26.50;99.90
59703;DHT22;45570;48.782;8.332;2022-09-13T15:52:19;26.40;99.90
59703;DHT22;45570;48.782;8.332;2022-09-13T15:54:50;26.30;99.90
59703;DHT22;45570;48.782;8.332;2022-09-13T15:57:21;26.30;99.90
59703;DHT22;45570;48.782;8.332;2022-09-13T15:59:51;26.20;99.90
59703;DHT22;45570;48.782;8.332;2022-09-13T16:02:24;26.20;99.90
59703;DHT22;45570;48.782;8.332;2022-09-13T16:04:55;26.00;99.90
59703;DHT22;45570;48.782;8.332;2022-09-13T16:07:25;26.00;99.90
59703;DHT22;45570;48.782;8.332;2022-09-13T16:09:54;25.80;99.90
59703;DHT22;45570;48.782;8.332;2022-09-13T16:12:23;25.70;99.90
59703;DHT22;45570;48.782;8.332;2022-09-13T16:14:53;25.70;99.90
59703;DHT22;45570;48.782;8.332;2022-09-13T16:17:24;25.60;99.90
59703;DHT22;45570;48.782;8.332;2022-09-13T16:19:53;25.60;99.90
59703;DHT22;45570;48.782;8.332;2022-09-13T16:22:22;25.50;99.90
59703;DHT22;45570;48.782;8.332;2022-09-13T16:24:53;25.40;99.90
59703;DHT22;45570;48.782;8.332;2022-09-13T16:27:21;25.40;99.90
59703;DHT22;45570;48.782;8.332;2022-09-13T16:29:58;25.40;99.90
59703;DHT22;45570;48.782;8.332;2022-09-13T16:32:27;25.30;99.90
59703;DHT22;45570;48.782;8.332;2022-09-13T16:34:55;25.30;99.90
59703;DHT22;45570;48.782;8.332;2022-09-13T16:37:24;25.30;99.90
59703;DHT22;45570;48.782;8.332;2022-09-13T16:39:56;25.20;99.90
59703;DHT22;45570;48.782;8.332;2022-09-13T16:42:26;25.20;99.90
59703;DHT22;45570;48.782;8.332;2022-09-13T16:44:55;25.10;99.90
59703;DHT22;45570;48.782;8.332;2022-09-13T16:47:24;25.10;99.90
59703;DHT22;45570;48.782;8.332;2022-09-13T16:49:52;25.00;99.90
59703;DHT22;45570;48.782;8.332;2022-09-13T16:52:21;25.00;99.90
59703;DHT22;45570;48.782;8.332;2022-09-13T16:54:50;24.90;99.90
59703;DHT22;45570;48.782;8.332;2022-09-13T16:57:20;24.80;99.90
59703;DHT22;45570;48.782;8.332;2022-09-13T16:59:50;24.70;99.90
59703;DHT22;45570;48.782;8.332;2022-09-13T17:02:20;24.70;99.90
59703;DHT22;45570;48.782;8.332;2022-09-13T17:04:49;24.60;99.90
59703;DHT22;45570;48.782;8.332;2022-09-13T17:07:18;24.60;99.90
59703;DHT22;45570;48.782;8.332;2022-09-13T17:09:47;24.50;99.90
59703;DHT22;45570;48.782;8.332;2022-09-13T17:12:16;24.40;99.90
59703;DHT22;45570;48.782;8.332;2022-09-13T17:14:47;24.20;99.90
59703;DHT22;45570;48.782;8.332;2022-09-13T17:17:17;24.10;99.90
59703;DHT22;45570;48.782;8.332;2022-09-13T17:19:46;23.90;99.90
59703;DHT22;45570;48.782;8.332;2022-09-13T17:22:15;23.80;99.90
59703;DHT22;45570;48.782;8.332;2022-09-13T17:24:44;23.50;99.90
59703;DHT22;45570;48.782;8.332;2022-09-13T17:27:12;23.40;99.90
59703;DHT22;45570;48.782;8.332;2022-09-13T17:29:41;23.20;99.90
59703;DHT22;45570;48.782;8.332;2022-09-13T17:32:11;23.00;99.90
59703;DHT22;45570;48.782;8.332;2022-09-13T17:34:40;22.80;99.90
59703;DHT22;45570;48.782;8.332;2022-09-13T17:37:09;22.60;99.90
59703;DHT22;45570;48.782;8.332;2022-09-13T17:39:39;22.50;99.90
59703;DHT22;45570;48.782;8.332;2022-09-13T17:42:09;22.30;99.90
59703;DHT22;45570;48.782;8.332;2022-09-13T17:44:37;22.20;99.90
59703;DHT22;45570;48.782;8.332;2022-09-13T17:47:06;22.00;99.90
59703;DHT22;45570;48.782;8.332;2022-09-13T17:49:37;21.90;99.90
59703;DHT22;45570;48.782;8.332;2022-09-13T17:52:06;21.70;99.90
59703;DHT22;45570;48.782;8.332;2022-09-13T17:54:35;21.60;99.90
59703;DHT22;45570;48.782;8.332;2022-09-13T17:57:04;21.50;99.90
59703;DHT22;45570;48.782;8.332;2022-09-13T17:59:33;21.40;99.90
59703;DHT22;45570;48.782;8.332;2022-09-13T18:02:02;21.30;99.90
59703;DHT22;45570;48.782;8.332;2022-09-13T18:04:31;21.20;99.90
59703;DHT22;45570;48.782;8.332;2022-09-13T18:07:01;21.20;99.90
59703;DHT22;45570;48.782;8.332;2022-09-13T18:09:30;21.20;99.90
59703;DHT22;45570;48.782;8.332;2022-09-13T18:11:58;21.30;99.90
59703;DHT22;45570;48.782;8.332;2022-09-13T18:14:27;21.20;99.90
59703;DHT22;45570;48.782;8.332;2022-09-13T18:16:56;21.00;99.90
59703;DHT22;45570;48.782;8.332;2022-09-13T18:19:25;21.00;99.90
59703;DHT22;45570;48.782;8.332;2022-09-13T18:22:13;20.90;99.90
59703;DHT22;45570;48.782;8.332;2022-09-13T18:24:42;20.90;99.90
59703;DHT22;45570;48.782;8.332;2022-09-13T18:27:11;20.70;99.90
59703;DHT22;45570;48.782;8.332;2022-09-13T18:29:39;20.70;99.90
59703;DHT22;45570;48.782;8.332;2022-09-13T18:32:08;20.70;99.90
59703;DHT22;45570;48.782;8.332;2022-09-13T18:34:37;20.80;99.90
59703;DHT22;45570;48.782;8.332;2022-09-13T18:37:08;20.70;99.90
59703;DHT22;45570;48.782;8.332;2022-09-13T18:39:38;20.60;99.90
59703;DHT22;45570;48.782;8.332;2022-09-13T18:42:07;20.60;99.90
59703;DHT22;45570;48.782;8.332;2022-09-13T18:44:36;20.60;99.90
59703;DHT22;45570;48.782;8.332;2022-09-13T18:47:05;20.60;99.90
59703;DHT22;45570;48.782;8.332;2022-09-13T18:49:35;20.60;99.90
59703;DHT22;45570;48.782;8.332;2022-09-13T18:52:03;20.50;99.90
59703;DHT22;45570;48.782;8.332;2022-09-13T18:54:33;20.50;99.90
59703;DHT22;45570;48.782;8.332;2022-09-13T18:57:03;20.60;99.90
59703;DHT22;45570;48.782;8.332;2022-09-13T18:59:32;20.50;99.90
59703;DHT22;45570;48.782;8.332;2022-09-13T19:02:01;20.50;99.90
59703;DHT22;45570;48.782;8.332;2022-09-13T19:04:30;20.40;99.90
59703;DHT22;45570;48.782;8.332;2022-09-13T19:07:02;20.40;99.90
59703;DHT22;45570;48.782;8.332;2022-09-13T19:09:33;20.30;99.90
59703;DHT22;45570;48.782;8.332;2022-09-13T19:12:04;20.20;99.90
59703;DHT22;45570;48.782;8.332;2022-09-13T19:14:34;20.30;99.90
59703;DHT22;45570;48.782;8.332;2022-09-13T19:17:02;20.20;99.90
59703;DHT22;45570;48.782;8.332;2022-09-13T19:19:31;20.20;99.90
59703;DHT22;45570;48.782;8.332;2022-09-13T19:22:01;20.10;99.90
59703;DHT22;45570;48.782;8.332;2022-09-13T19:24:30;20.10;99.90
59703;DHT22;45570;48.782;8.332;2022-09-13T19:27:00;20.10;99.90
59703;DHT22;45570;48.782;8.332;2022-09-13T19:29:30;20.10;99.90
59703;DHT22;45570;48.782;8.332;2022-09-13T19:31:58;20.10;99.90
59703;DHT22;45570;48.782;8.332;2022-09-13T19:34:27;20.10;99.90
59703;DHT22;45570;48.782;8.332;2022-09-13T19:36:56;20.10;99.90
59703;DHT22;45570;48.782;8.332;2022-09-13T19:39:25;20.10;99.90
59703;DHT22;45570;48.782;8.332;2022-09-13T19:41:58;20.20;99.90
59703;DHT22;45570;48.782;8.332;2022-09-13T19:44:31;20.10;99.90
59703;DHT22;45570;48.782;8.332;2022-09-13T19:47:01;20.00;99.90
59703;DHT22;45570;48.782;8.332;2022-09-13T19:49:52;20.00;99.90
59703;DHT22;45570;48.782;8.332;2022-09-13T19:52:20;19.90;99.90
59703;DHT22;45570;48.782;8.332;2022-09-13T19:54:49;19.90;99.90
59703;DHT22;45570;48.782;8.332;2022-09-13T19:57:18;19.90;99.90
59703;DHT22;45570;48.782;8.332;2022-09-13T19:59:49;19.80;99.90
59703;DHT22;45570;48.782;8.332;2022-09-13T20:02:17;19.80;99.90
59703;DHT22;45570;48.782;8.332;2022-09-13T20:04:46;19.80;99.90
59703;DHT22;45570;48.782;8.332;2022-09-13T20:07:15;19.80;99.90
59703;DHT22;45570;48.782;8.332;2022-09-13T20:09:44;19.80;99.90
59703;DHT22;45570;48.782;8.332;2022-09-13T20:12:14;19.70;99.90
59703;DHT22;45570;48.782;8.332;2022-09-13T20:14:42;19.70;99.90
59703;DHT22;45570;48.782;8.332;2022-09-13T20:17:12;19.70;99.90
59703;DHT22;45570;48.782;8.332;2022-09-13T20:19:41;19.60;99.90
59703;DHT22;45570;48.782;8.332;2022-09-13T20:22:16;19.60;99.90
59703;DHT22;45570;48.782;8.332;2022-09-13T20:24:44;19.60;99.90
59703;DHT22;45570;48.782;8.332;2022-09-13T20:27:13;19.50;99.90
59703;DHT22;45570;48.782;8.332;2022-09-13T20:29:42;19.50;99.90
59703;DHT22;45570;48.782;8.332;2022-09-13T20:32:12;19.40;99.90
59703;DHT22;45570;48.782;8.332;2022-09-13T20:34:41;19.40;99.90
59703;DHT22;45570;48.782;8.332;2022-09-13T20:37:10;19.30;99.90
59703;DHT22;45570;48.782;8.332;2022-09-13T20:39:39;19.40;99.90
59703;DHT22;45570;48.782;8.332;2022-09-13T20:42:07;19.30;99.90
59703;DHT22;45570;48.782;8.332;2022-09-13T20:44:36;19.30;99.90
59703;DHT22;45570;48.782;8.332;2022-09-13T20:47:07;19.30;99.90
59703;DHT22;45570;48.782;8.332;2022-09-13T20:49:39;19.20;99.90
59703;DHT22;45570;48.782;8.332;2022-09-13T20:52:08;19.20;99.90
59703;DHT22;45570;48.782;8.332;2022-09-13T20:54:37;19.30;99.90
59703;DHT22;45570;48.782;8.332;2022-09-13T20:57:07;19.30;99.90
59703;DHT22;45570;48.782;8.332;2022-09-13T20:59:35;19.20;99.90
59703;DHT22;45570;48.782;8.332;2022-09-13T21:02:05;19.20;99.90
59703;DHT22;45570;48.782;8.332;2022-09-13T21:04:33;19.10;99.90
59703;DHT22;45570;48.782;8.332;2022-09-13T21:07:04;19.10;99.90
59703;DHT22;45570;48.782;8.332;2022-09-13T21:09:50;19.10;99.90
59703;DHT22;45570;48.782;8.332;2022-09-13T21:12:19;19.00;99.90
59703;DHT22;45570;48.782;8.332;2022-09-13T21:14:48;19.00;99.90
59703;DHT22;45570;48.782;8.332;2022-09-13T21:17:17;19.00;99.90
59703;DHT22;45570;48.782;8.332;2022-09-13T21:19:46;19.00;99.90
59703;DHT22;45570;48.782;8.332;2022-09-13T21:22:16;19.00;99.90
